Time;durP1;ratioP1;P1;durP2;ratioP2;P2;SDS_P1;SDS_P2;PMS_P1;PMS_P2;Temp;Humidity;BMP_temperature;BMP_pressure;BME280_temperature;BME280_humidity;BME280_pressure;Samples;Min_cycle;Max_cycle;Signal;HPM_P1;HPM_P2
2022/01/06 00:00:14;;;;;;;3.90;1.27;;;;;;;;;;5112142;28;20105;-71
2022/01/06 00:02:40;;;;;;;1.73;0.80;;;;;;;;;;5111593;28;20080;-71
2022/01/06 00:05:07;;;;;;;3.15;1.50;;;;;;;;;;5112210;28;20095;-72
2022/01/06 00:07:33;;;;;;;3.35;1.27;;;;;;;;;;5093705;28;20043;-71
2022/01/06 00:09:59;;;;;;;1.67;1.08;;;;;;;;;;5093023;28;20027;-71
2022/01/06 00:12:35;;;;;;;2.65;1.25;;;;;;;;;;5111230;28;20019;-71
2022/01/06 00:15:24;;;;;;;3.10;1.00;;;;;;;;;;5093270;28;20024;-71
2022/01/06 00:18:43;;;;;;;2.35;1.20;;;;;;;;;;5111863;28;20394;-71
2022/01/06 00:23:38;;;;;;;2.00;0.85;;;;;;;;;;5111479;28;20047;-71
2022/01/06 00:26:04;;;;;;;2.13;1.10;;;;;;;;;;5111799;28;20020;-71
2022/01/06 00:28:31;;;;;;;3.35;1.58;;;;;;;;;;5101613;28;20054;-71
2022/01/06 00:30:57;;;;;;;2.78;1.10;;;;;;;;;;5132318;27;20019;-71
2022/01/06 00:33:24;;;;;;;2.80;1.05;;;;;;;;;;5131920;27;20428;-71
2022/01/06 00:35:50;;;;;;;2.50;1.20;;;;;;;;;;5131965;28;20030;-71
2022/01/06 00:38:16;;;;;;;2.38;1.20;;;;;;;;;;5113823;28;20027;-71
2022/01/06 00:40:43;;;;;;;2.33;1.15;;;;;;;;;;5129316;28;20026;-71
2022/01/06 00:43:10;;;;;;;3.25;0.90;;;;;;;;;;5111597;28;20129;-71
2022/01/06 00:45:36;;;;;;;4.35;1.20;;;;;;;;;;5111416;28;20146;-71
2022/01/06 00:48:04;;;;;;;2.28;0.98;;;;;;;;;;5111306;28;20032;-71
2022/01/06 00:50:31;;;;;;;2.75;1.25;;;;;;;;;;5111218;28;20016;-71
2022/01/06 00:52:57;;;;;;;3.05;1.20;;;;;;;;;;5111451;28;20410;-71
2022/01/06 00:55:23;;;;;;;2.65;1.00;;;;;;;;;;5111252;28;20114;-71
2022/01/06 00:57:49;;;;;;;2.30;1.30;;;;;;;;;;5111215;28;20028;-71
2022/01/06 01:00:15;;;;;;;3.17;1.02;;;;;;;;;;5114820;28;20019;-72
2022/01/06 01:02:41;;;;;;;2.25;1.05;;;;;;;;;;5131844;28;20019;-71
2022/01/06 01:05:08;;;;;;;3.17;1.52;;;;;;;;;;5131443;28;20103;-71
2022/01/06 01:07:34;;;;;;;2.45;0.98;;;;;;;;;;5131664;27;20108;-71
2022/01/06 01:10:00;;;;;;;2.33;1.10;;;;;;;;;;5120483;28;20028;-71
2022/01/06 01:12:27;;;;;;;2.28;1.10;;;;;;;;;;5110940;28;20028;-71
2022/01/06 01:14:59;;;;;;;2.17;1.15;;;;;;;;;;5110750;28;20023;-71
2022/01/06 01:17:27;;;;;;;2.00;1.07;;;;;;;;;;5111260;28;20026;-71
2022/01/06 01:19:54;;;;;;;1.55;0.70;;;;;;;;;;5111067;28;20028;-71
2022/01/06 01:22:20;;;;;;;2.13;1.02;;;;;;;;;;5111892;28;20022;-71
2022/01/06 01:24:46;;;;;;;4.28;1.23;;;;;;;;;;5114502;28;20038;-71
2022/01/06 01:27:14;;;;;;;1.75;0.90;;;;;;;;;;5096649;28;20038;-71
2022/01/06 01:29:55;;;;;;;1.90;0.82;;;;;;;;;;5114746;27;20047;-71
2022/01/06 01:32:28;;;;;;;3.47;1.25;;;;;;;;;;5113788;28;20047;-71
2022/01/06 01:34:59;;;;;;;2.85;0.98;;;;;;;;;;5114271;28;20157;-71
2022/01/06 01:37:25;;;;;;;2.63;1.02;;;;;;;;;;5114770;28;20018;-71
2022/01/06 01:39:51;;;;;;;1.55;1.00;;;;;;;;;;5114630;28;20141;-72
2022/01/06 01:42:17;;;;;;;3.55;1.13;;;;;;;;;;5114112;28;20046;-71
2022/01/06 01:44:45;;;;;;;2.85;1.13;;;;;;;;;;5095842;28;20031;-71
2022/01/06 01:47:14;;;;;;;2.03;0.88;;;;;;;;;;5096198;28;20051;-71
2022/01/06 01:49:55;;;;;;;2.28;0.90;;;;;;;;;;5114450;28;20117;-71
2022/01/06 01:52:21;;;;;;;1.90;0.88;;;;;;;;;;5114030;28;20020;-71
2022/01/06 01:54:47;;;;;;;2.85;0.90;;;;;;;;;;5114116;28;20041;-71
2022/01/06 01:57:13;;;;;;;1.70;0.80;;;;;;;;;;5114463;28;20477;-71
2022/01/06 01:59:39;;;;;;;3.10;1.00;;;;;;;;;;5095875;28;20028;-71
2022/01/06 02:02:05;;;;;;;1.63;1.00;;;;;;;;;;5095554;28;20027;-71
2022/01/06 02:04:33;;;;;;;2.33;1.15;;;;;;;;;;5117351;27;20106;-71
2022/01/06 02:06:59;;;;;;;3.33;1.08;;;;;;;;;;5126703;27;20020;-71
2022/01/06 02:09:25;;;;;;;2.25;0.85;;;;;;;;;;5113706;28;20078;-71
2022/01/06 02:11:53;;;;;;;2.03;0.77;;;;;;;;;;5113556;28;20474;-72
2022/01/06 02:14:19;;;;;;;2.72;1.02;;;;;;;;;;5113990;28;20032;-71
2022/01/06 02:16:45;;;;;;;2.78;1.08;;;;;;;;;;5113966;28;20026;-71
2022/01/06 02:19:11;;;;;;;5.45;0.90;;;;;;;;;;5113776;28;20027;-71
2022/01/06 02:21:41;;;;;;;3.33;0.95;;;;;;;;;;5113511;28;20103;-71
2022/01/06 02:24:07;;;;;;;2.00;0.90;;;;;;;;;;5113629;28;20030;-71
2022/01/06 02:26:33;;;;;;;2.25;0.93;;;;;;;;;;5113406;28;20036;-71
2022/01/06 02:29:00;;;;;;;1.55;0.88;;;;;;;;;;5095044;28;20182;-71
2022/01/06 02:31:26;;;;;;;2.13;0.75;;;;;;;;;;5113075;28;20023;-71
2022/01/06 02:33:52;;;;;;;3.30;0.88;;;;;;;;;;5094939;28;20494;-71
2022/01/06 02:36:19;;;;;;;1.75;0.70;;;;;;;;;;5113175;28;20050;-71
2022/01/06 02:38:45;;;;;;;1.73;0.80;;;;;;;;;;5133612;27;20015;-71
2022/01/06 02:41:12;;;;;;;3.80;1.00;;;;;;;;;;5127015;27;20074;-72
2022/01/06 02:43:38;;;;;;;2.83;1.13;;;;;;;;;;5112844;28;20031;-71
2022/01/06 02:46:04;;;;;;;2.20;0.90;;;;;;;;;;5113089;28;20054;-71
2022/01/06 02:48:31;;;;;;;2.42;1.00;;;;;;;;;;5113236;28;20027;-71
2022/01/06 02:50:57;;;;;;;2.45;1.05;;;;;;;;;;5113455;28;20115;-71
2022/01/06 02:53:23;;;;;;;2.13;1.20;;;;;;;;;;5113318;28;20528;-71
2022/01/06 02:55:52;;;;;;;3.47;0.93;;;;;;;;;;5113176;28;20479;-72
2022/01/06 02:58:18;;;;;;;2.50;1.13;;;;;;;;;;5116024;27;20141;-71
2022/01/06 03:00:45;;;;;;;2.45;0.82;;;;;;;;;;5115143;27;20035;-71
2022/01/06 03:03:11;;;;;;;2.70;1.02;;;;;;;;;;5133658;27;20432;-71
2022/01/06 03:05:37;;;;;;;2.60;1.05;;;;;;;;;;5133270;27;20027;-71
2022/01/06 03:08:03;;;;;;;1.35;0.82;;;;;;;;;;5134019;27;20024;-71
2022/01/06 03:10:35;;;;;;;1.13;0.55;;;;;;;;;;5114378;27;20039;-71
2022/01/06 03:13:01;;;;;;;2.40;1.13;;;;;;;;;;5133633;27;20026;-71
2022/01/06 03:15:27;;;;;;;2.35;0.90;;;;;;;;;;5109401;28;20019;-71
2022/01/06 03:17:58;;;;;;;1.88;0.82;;;;;;;;;;5112871;28;20024;-71
2022/01/06 03:20:25;;;;;;;1.75;0.88;;;;;;;;;;5094203;28;20028;-71
2022/01/06 03:22:52;;;;;;;2.75;0.77;;;;;;;;;;5131516;27;20576;-71
2022/01/06 03:25:18;;;;;;;3.90;0.82;;;;;;;;;;5132808;27;20034;-71
2022/01/06 03:27:44;;;;;;;1.40;0.63;;;;;;;;;;5132920;27;20019;-71
2022/01/06 03:30:12;;;;;;;2.35;0.85;;;;;;;;;;5132904;27;20138;-71
2022/01/06 03:32:39;;;;;;;1.70;0.70;;;;;;;;;;5133460;27;20011;-71
2022/01/06 03:35:05;;;;;;;2.10;0.85;;;;;;;;;;5132667;27;20079;-71
2022/01/06 03:37:32;;;;;;;5.18;1.10;;;;;;;;;;5132855;27;20023;-71
2022/01/06 03:39:59;;;;;;;1.25;0.50;;;;;;;;;;5132651;27;20029;-71
2022/01/06 03:42:25;;;;;;;1.90;1.00;;;;;;;;;;5114723;27;20126;-72
2022/01/06 03:44:51;;;;;;;1.75;0.80;;;;;;;;;;5111594;28;20061;-72
2022/01/06 03:47:17;;;;;;;2.92;1.42;;;;;;;;;;5111783;28;20094;-71
2022/01/06 03:49:43;;;;;;;2.92;0.57;;;;;;;;;;5112078;28;20039;-71
2022/01/06 03:52:09;;;;;;;1.80;0.80;;;;;;;;;;5111721;28;20144;-71
2022/01/06 03:54:35;;;;;;;2.05;0.95;;;;;;;;;;5112224;28;20106;-72
2022/01/06 03:57:01;;;;;;;1.77;0.90;;;;;;;;;;5111926;28;20019;-71
2022/01/06 03:59:28;;;;;;;1.25;0.80;;;;;;;;;;5112081;28;20490;-71
2022/01/06 04:01:54;;;;;;;1.70;0.75;;;;;;;;;;5111557;28;20089;-71
2022/01/06 04:04:20;;;;;;;1.67;0.82;;;;;;;;;;5093509;28;20063;-71
2022/01/06 04:06:46;;;;;;;3.92;0.98;;;;;;;;;;5111974;28;20081;-71
2022/01/06 04:09:12;;;;;;;1.38;0.75;;;;;;;;;;5111814;28;20443;-71
2022/01/06 04:11:38;;;;;;;3.67;1.05;;;;;;;;;;5111704;28;20440;-71
2022/01/06 04:14:04;;;;;;;2.10;0.93;;;;;;;;;;5111382;28;20032;-71
2022/01/06 04:16:34;;;;;;;2.33;1.02;;;;;;;;;;5111833;28;20031;-71
2022/01/06 04:19:01;;;;;;;3.03;1.00;;;;;;;;;;5112083;28;20509;-71
2022/01/06 04:21:27;;;;;;;1.95;0.88;;;;;;;;;;5092789;28;20030;-72
2022/01/06 04:23:53;;;;;;;1.95;0.98;;;;;;;;;;5093361;28;20027;-71
2022/01/06 04:26:19;;;;;;;1.85;0.90;;;;;;;;;;5093247;28;20038;-71
2022/01/06 04:28:45;;;;;;;2.47;0.70;;;;;;;;;;5111062;28;20044;-71
2022/01/06 04:31:11;;;;;;;1.38;0.70;;;;;;;;;;5111745;28;20485;-71
2022/01/06 04:33:37;;;;;;;1.77;0.90;;;;;;;;;;5111118;28;20402;-71
2022/01/06 04:36:04;;;;;;;1.27;0.82;;;;;;;;;;5111469;28;20030;-72
2022/01/06 04:38:31;;;;;;;1.58;0.73;;;;;;;;;;5111635;28;20111;-71
2022/01/06 04:40:57;;;;;;;2.13;0.80;;;;;;;;;;5111199;28;20027;-71
2022/01/06 04:43:24;;;;;;;2.85;0.80;;;;;;;;;;5111215;28;20355;-71
2022/01/06 04:45:50;;;;;;;1.50;0.77;;;;;;;;;;5116670;28;20392;-72
2022/01/06 04:48:16;;;;;;;2.70;0.73;;;;;;;;;;5131803;27;20027;-72
2022/01/06 04:50:42;;;;;;;2.30;0.90;;;;;;;;;;5119992;28;20077;-71
2022/01/06 04:53:08;;;;;;;1.98;0.68;;;;;;;;;;5111501;28;20394;-71
2022/01/06 04:55:35;;;;;;;1.55;0.70;;;;;;;;;;5111498;28;20528;-71
2022/01/06 04:58:01;;;;;;;2.53;0.70;;;;;;;;;;5115548;28;20446;-71
2022/01/06 05:00:27;;;;;;;3.78;1.08;;;;;;;;;;5115487;28;20033;-71
2022/01/06 05:02:53;;;;;;;2.88;0.80;;;;;;;;;;5115420;28;20435;-71
2022/01/06 05:05:19;;;;;;;2.10;1.02;;;;;;;;;;5115378;28;20035;-71
2022/01/06 05:07:45;;;;;;;1.17;0.63;;;;;;;;;;5115157;28;20030;-71
2022/01/06 05:10:12;;;;;;;2.67;0.70;;;;;;;;;;5115450;28;20019;-71
2022/01/06 05:12:41;;;;;;;2.58;1.02;;;;;;;;;;5115241;28;20095;-71
2022/01/06 05:15:08;;;;;;;2.40;1.00;;;;;;;;;;5114946;28;20482;-72
2022/01/06 05:17:34;;;;;;;1.20;0.90;;;;;;;;;;5116561;27;20027;-71
2022/01/06 05:20:03;;;;;;;3.35;0.80;;;;;;;;;;5136075;27;20023;-71
2022/01/06 05:22:30;;;;;;;2.40;1.08;;;;;;;;;;5134954;27;20170;-72
2022/01/06 05:24:57;;;;;;;2.03;0.80;;;;;;;;;;5135358;27;20034;-72
2022/01/06 05:27:23;;;;;;;1.65;0.75;;;;;;;;;;5116816;27;20042;-72
2022/01/06 05:29:49;;;;;;;1.17;0.80;;;;;;;;;;5135316;27;20047;-72
2022/01/06 05:32:15;;;;;;;1.75;0.93;;;;;;;;;;5135215;27;20409;-72
2022/01/06 05:34:41;;;;;;;1.90;0.82;;;;;;;;;;5135530;27;20033;-72
2022/01/06 05:37:07;;;;;;;2.58;0.93;;;;;;;;;;5117022;27;20023;-72
2022/01/06 05:39:33;;;;;;;1.75;0.75;;;;;;;;;;5134903;27;20020;-72
2022/01/06 05:41:59;;;;;;;1.55;0.70;;;;;;;;;;5121078;27;20069;-72
2022/01/06 05:44:26;;;;;;;3.33;1.00;;;;;;;;;;5114791;28;20119;-72
2022/01/06 05:46:52;;;;;;;1.33;0.65;;;;;;;;;;5114265;28;20029;-72
2022/01/06 05:49:18;;;;;;;1.77;0.82;;;;;;;;;;5114249;28;20032;-72
2022/01/06 05:51:44;;;;;;;2.35;0.88;;;;;;;;;;5111290;28;20386;-72
2022/01/06 05:54:10;;;;;;;1.58;0.95;;;;;;;;;;5114321;28;20467;-72
2022/01/06 05:56:37;;;;;;;1.50;0.70;;;;;;;;;;5114334;28;20027;-72
2022/01/06 05:59:03;;;;;;;1.90;0.73;;;;;;;;;;5114039;28;20024;-72
2022/01/06 06:01:29;;;;;;;2.03;1.00;;;;;;;;;;5114473;27;20491;-72
2022/01/06 06:03:55;;;;;;;1.90;0.70;;;;;;;;;;5135008;27;20504;-72
2022/01/06 06:06:21;;;;;;;1.80;0.88;;;;;;;;;;5134609;27;20026;-72
2022/01/06 06:08:47;;;;;;;1.77;0.80;;;;;;;;;;5133711;27;20155;-72
2022/01/06 06:11:14;;;;;;;1.15;0.70;;;;;;;;;;5134876;27;20024;-72
2022/01/06 06:13:40;;;;;;;1.98;0.82;;;;;;;;;;5115549;27;20031;-72
2022/01/06 06:16:06;;;;;;;2.75;0.70;;;;;;;;;;5123810;27;20395;-72
2022/01/06 06:18:32;;;;;;;2.38;0.90;;;;;;;;;;5095683;28;20067;-72
2022/01/06 06:21:01;;;;;;;1.83;0.85;;;;;;;;;;5113774;28;20028;-72
2022/01/06 06:23:27;;;;;;;3.10;0.98;;;;;;;;;;5095354;28;20036;-72
2022/01/06 06:25:53;;;;;;;1.30;0.82;;;;;;;;;;5113958;28;20513;-72
2022/01/06 06:28:19;;;;;;;3.15;0.77;;;;;;;;;;5113343;28;20097;-72
2022/01/06 06:30:46;;;;;;;2.83;1.02;;;;;;;;;;5131730;27;20062;-72
2022/01/06 06:33:12;;;;;;;1.63;0.60;;;;;;;;;;5134411;27;20030;-72
2022/01/06 06:35:38;;;;;;;1.67;0.70;;;;;;;;;;5134626;27;20411;-72
2022/01/06 06:38:04;;;;;;;2.00;0.95;;;;;;;;;;5134013;27;20019;-72
2022/01/06 06:40:30;;;;;;;1.70;0.80;;;;;;;;;;5132798;27;20034;-72
2022/01/06 06:42:56;;;;;;;0.95;0.57;;;;;;;;;;5113688;28;20034;-72
2022/01/06 06:45:23;;;;;;;5.15;1.08;;;;;;;;;;5113629;28;20052;-73
2022/01/06 06:47:50;;;;;;;2.55;0.80;;;;;;;;;;5111659;28;20043;-72
2022/01/06 06:50:17;;;;;;;3.42;0.98;;;;;;;;;;5112399;28;20106;-72
2022/01/06 06:52:46;;;;;;;1.70;0.90;;;;;;;;;;5113170;28;20468;-72
2022/01/06 06:55:13;;;;;;;2.13;1.00;;;;;;;;;;5112477;28;20040;-73
2022/01/06 06:57:39;;;;;;;1.70;0.77;;;;;;;;;;5115669;27;20042;-72
2022/01/06 07:00:09;;;;;;;1.55;0.68;;;;;;;;;;5133605;27;20032;-72
2022/01/06 07:02:36;;;;;;;2.30;0.80;;;;;;;;;;5133773;27;20020;-72
2022/01/06 07:05:02;;;;;;;1.90;0.80;;;;;;;;;;5131141;27;20054;-72
2022/01/06 07:07:28;;;;;;;2.50;1.02;;;;;;;;;;5113033;28;20023;-72
2022/01/06 07:09:54;;;;;;;2.33;1.00;;;;;;;;;;5113164;28;20046;-72
2022/01/06 07:12:20;;;;;;;1.35;0.70;;;;;;;;;;5112479;28;20031;-72
2022/01/06 07:14:46;;;;;;;2.25;0.80;;;;;;;;;;5113010;28;20474;-72
2022/01/06 07:17:12;;;;;;;2.38;0.90;;;;;;;;;;5094450;28;20034;-72
2022/01/06 07:19:39;;;;;;;1.73;0.90;;;;;;;;;;5111831;28;20537;-72
2022/01/06 07:22:05;;;;;;;3.13;1.20;;;;;;;;;;5112423;28;20064;-72
2022/01/06 07:24:32;;;;;;;1.35;0.90;;;;;;;;;;5112544;28;20032;-72
2022/01/06 07:27:00;;;;;;;1.95;0.95;;;;;;;;;;5118001;27;20123;-72
2022/01/06 07:29:26;;;;;;;0.82;0.70;;;;;;;;;;5132778;27;20058;-72
2022/01/06 07:31:55;;;;;;;2.22;0.82;;;;;;;;;;5132734;27;20062;-72
2022/01/06 07:34:21;;;;;;;2.38;0.98;;;;;;;;;;5132849;27;20401;-72
2022/01/06 07:36:47;;;;;;;4.18;0.90;;;;;;;;;;5133243;27;20019;-73
2022/01/06 07:39:13;;;;;;;1.33;0.82;;;;;;;;;;5132975;27;20027;-72
2022/01/06 07:41:42;;;;;;;3.50;1.00;;;;;;;;;;5121540;27;20023;-72
2022/01/06 07:44:09;;;;;;;2.25;0.90;;;;;;;;;;5093663;28;20380;-72
2022/01/06 07:46:36;;;;;;;3.60;0.85;;;;;;;;;;5112118;28;20074;-73
2022/01/06 07:49:04;;;;;;;1.88;0.95;;;;;;;;;;5112049;28;20401;-72
2022/01/06 07:51:31;;;;;;;1.33;0.80;;;;;;;;;;5111169;28;20027;-72
2022/01/06 07:54:01;;;;;;;1.17;0.70;;;;;;;;;;5093769;28;20027;-72
2022/01/06 07:56:27;;;;;;;1.60;0.90;;;;;;;;;;5111452;28;20066;-72
2022/01/06 07:58:53;;;;;;;2.38;0.93;;;;;;;;;;5111997;28;20047;-72
2022/01/06 08:01:20;;;;;;;1.98;0.70;;;;;;;;;;5097284;28;20479;-72
2022/01/06 08:03:46;;;;;;;1.33;0.70;;;;;;;;;;5109525;28;20035;-73
2022/01/06 08:06:12;;;;;;;2.25;0.70;;;;;;;;;;5092071;27;20126;-72
2022/01/06 08:08:39;;;;;;;1.70;0.95;;;;;;;;;;5100232;28;20076;-73
2022/01/06 08:11:05;;;;;;;3.45;1.55;;;;;;;;;;5110834;28;20070;-73
2022/01/06 08:13:32;;;;;;;2.42;0.90;;;;;;;;;;5108466;27;20020;-72
2022/01/06 08:16:01;;;;;;;3.95;0.70;;;;;;;;;;5086287;27;20027;-74
2022/01/06 08:18:27;;;;;;;1.20;0.77;;;;;;;;;;5113846;27;20061;-74
2022/01/06 08:20:55;;;;;;;3.72;0.80;;;;;;;;;;5116385;27;20033;-73
2022/01/06 08:23:21;;;;;;;2.97;0.98;;;;;;;;;;5120372;27;20437;-72
2022/01/06 08:25:47;;;;;;;1.77;0.75;;;;;;;;;;5128698;27;20030;-73
2022/01/06 08:28:13;;;;;;;1.58;0.80;;;;;;;;;;5115590;27;20055;-73
2022/01/06 08:30:40;;;;;;;3.28;0.98;;;;;;;;;;5110907;27;20053;-73
2022/01/06 08:33:06;;;;;;;2.30;0.85;;;;;;;;;;5112325;27;20062;-74
2022/01/06 08:35:32;;;;;;;2.22;1.05;;;;;;;;;;5119988;28;20062;-72
2022/01/06 08:37:58;;;;;;;1.20;0.68;;;;;;;;;;5112997;28;20015;-70
2022/01/06 08:40:27;;;;;;;1.55;0.73;;;;;;;;;;5126754;28;20027;-70
2022/01/06 08:42:56;;;;;;;3.65;0.82;;;;;;;;;;5084389;28;20378;-72
2022/01/06 08:45:32;;;;;;;1.83;1.00;;;;;;;;;;5116203;28;20050;-73
2022/01/06 08:48:02;;;;;;;1.67;0.85;;;;;;;;;;5095704;28;20053;-73
2022/01/06 08:50:30;;;;;;;0.73;0.57;;;;;;;;;;5121149;28;20023;-71
2022/01/06 08:52:57;;;;;;;2.13;0.90;;;;;;;;;;5115776;28;20023;-74
2022/01/06 08:55:26;;;;;;;1.95;1.00;;;;;;;;;;5099830;28;20390;-71
2022/01/06 08:57:52;;;;;;;1.48;0.80;;;;;;;;;;5102893;28;20038;-71
2022/01/06 09:00:19;;;;;;;1.50;0.80;;;;;;;;;;5116340;28;20027;-72
2022/01/06 09:02:46;;;;;;;4.60;0.90;;;;;;;;;;5123164;28;20019;-71
2022/01/06 09:08:18;;;;;;;2.03;0.80;;;;;;;;;;5015919;28;20634;-70
2022/01/06 09:10:44;;;;;;;2.50;0.85;;;;;;;;;;5125974;28;20547;-69
2022/01/06 09:13:13;;;;;;;2.33;0.90;;;;;;;;;;5116798;28;20031;-70
2022/01/06 09:15:40;;;;;;;1.80;0.63;;;;;;;;;;5125417;28;20026;-70
2022/01/06 09:18:07;;;;;;;3.38;0.70;;;;;;;;;;5114824;28;20034;-72
2022/01/06 09:20:33;;;;;;;2.10;0.60;;;;;;;;;;5128789;28;20019;-70
2022/01/06 09:23:00;;;;;;;1.73;0.98;;;;;;;;;;5128839;28;20023;-71
2022/01/06 09:25:27;;;;;;;1.77;0.90;;;;;;;;;;5118601;28;20130;-72
2022/01/06 09:27:54;;;;;;;5.07;0.77;;;;;;;;;;5112129;28;20492;-72
2022/01/06 09:30:23;;;;;;;1.52;0.50;;;;;;;;;;5116163;28;20044;-72
2022/01/06 09:32:50;;;;;;;2.50;0.60;;;;;;;;;;5109772;28;20019;-72
2022/01/06 09:35:19;;;;;;;2.22;0.80;;;;;;;;;;5127827;28;20093;-72
2022/01/06 09:37:45;;;;;;;2.30;0.90;;;;;;;;;;5122975;28;20022;-72
2022/01/06 09:40:11;;;;;;;2.10;0.60;;;;;;;;;;5128934;28;20076;-72
2022/01/06 09:42:40;;;;;;;1.20;0.70;;;;;;;;;;5121095;27;20027;-73
2022/01/06 09:45:06;;;;;;;1.13;0.57;;;;;;;;;;5125744;27;20059;-73
2022/01/06 09:47:33;;;;;;;1.65;0.70;;;;;;;;;;5126738;27;20027;-73
2022/01/06 09:49:59;;;;;;;1.52;0.70;;;;;;;;;;5103388;28;20061;-73
2022/01/06 09:52:25;;;;;;;1.90;0.80;;;;;;;;;;5129197;27;20091;-74
2022/01/06 09:54:52;;;;;;;1.65;0.80;;;;;;;;;;5127163;27;20020;-73
2022/01/06 09:57:18;;;;;;;1.63;0.82;;;;;;;;;;5128009;27;20039;-72
2022/01/06 09:59:45;;;;;;;2.10;0.90;;;;;;;;;;5129299;27;20377;-72
2022/01/06 10:02:16;;;;;;;1.77;0.93;;;;;;;;;;5110688;27;20543;-70
2022/01/06 10:04:48;;;;;;;3.28;0.75;;;;;;;;;;5118568;27;20135;-70
2022/01/06 10:07:16;;;;;;;2.10;0.80;;;;;;;;;;5121150;27;20032;-71
2022/01/06 10:09:42;;;;;;;2.15;0.60;;;;;;;;;;5121548;27;20498;-71
2022/01/06 10:12:13;;;;;;;1.00;0.60;;;;;;;;;;5126468;27;20390;-71
2022/01/06 10:14:50;;;;;;;2.45;0.70;;;;;;;;;;5121875;27;20128;-71
2022/01/06 10:17:30;;;;;;;1.40;0.77;;;;;;;;;;5101488;28;20063;-71
2022/01/06 10:19:56;;;;;;;1.95;0.75;;;;;;;;;;5114556;27;20015;-71
2022/01/06 10:22:23;;;;;;;3.17;0.98;;;;;;;;;;5110626;27;20068;-71
2022/01/06 10:24:51;;;;;;;3.17;0.82;;;;;;;;;;5116701;27;20031;-70
2022/01/06 10:27:19;;;;;;;1.80;0.95;;;;;;;;;;5116040;27;20040;-71
2022/01/06 10:29:47;;;;;;;2.80;0.65;;;;;;;;;;5116293;27;20092;-70
2022/01/06 10:32:24;;;;;;;1.10;0.60;;;;;;;;;;5119418;27;20043;-72
2022/01/06 10:35:02;;;;;;;2.72;0.70;;;;;;;;;;5109280;27;20434;-71
2022/01/06 10:37:30;;;;;;;2.03;0.70;;;;;;;;;;5122649;27;20032;-70
2022/01/06 10:40:00;;;;;;;2.63;0.80;;;;;;;;;;5114724;27;20038;-71
2022/01/06 10:42:28;;;;;;;4.25;0.80;;;;;;;;;;5108327;27;20023;-72
2022/01/06 10:44:57;;;;;;;3.38;0.80;;;;;;;;;;5111228;27;20035;-71
2022/01/06 10:47:34;;;;;;;4.03;0.80;;;;;;;;;;5109134;27;20031;-70
2022/01/06 10:50:09;;;;;;;2.25;0.90;;;;;;;;;;5106721;27;20019;-71
2022/01/06 10:52:37;;;;;;;2.63;0.70;;;;;;;;;;5084319;27;20078;-74
2022/01/06 10:55:10;;;;;;;3.97;1.10;;;;;;;;;;5097796;27;20166;-71
2022/01/06 10:57:37;;;;;;;2.15;0.60;;;;;;;;;;5090646;27;20027;-73
2022/01/06 11:00:04;;;;;;;2.53;0.82;;;;;;;;;;5114141;27;20016;-74
2022/01/06 11:02:30;;;;;;;3.17;0.90;;;;;;;;;;5085001;27;20050;-74
2022/01/06 11:04:56;;;;;;;3.38;0.95;;;;;;;;;;5109229;27;20507;-74
2022/01/06 11:07:23;;;;;;;2.28;0.70;;;;;;;;;;5112737;27;20422;-77
2022/01/06 11:09:50;;;;;;;4.47;0.93;;;;;;;;;;5100058;27;20350;-72
2022/01/06 11:12:30;;;;;;;1.73;0.70;;;;;;;;;;5117643;27;20380;-74
2022/01/06 11:14:58;;;;;;;2.60;0.85;;;;;;;;;;5118557;27;20392;-71
2022/01/06 11:17:24;;;;;;;3.53;0.77;;;;;;;;;;5124547;27;20031;-72
2022/01/06 11:19:51;;;;;;;2.50;0.90;;;;;;;;;;5095553;28;20036;-71
2022/01/06 11:22:27;;;;;;;2.60;0.95;;;;;;;;;;5096854;28;20059;-71
2022/01/06 11:24:57;;;;;;;2.80;0.60;;;;;;;;;;5109310;28;20035;-72
2022/01/06 11:27:33;;;;;;;2.08;0.63;;;;;;;;;;5091576;28;20028;-72
2022/01/06 11:30:10;;;;;;;1.60;0.60;;;;;;;;;;5107836;28;20866;-73
2022/01/06 11:32:37;;;;;;;2.22;0.68;;;;;;;;;;5110448;27;20031;-72
2022/01/06 11:35:11;;;;;;;2.58;0.80;;;;;;;;;;5114812;27;20038;-73
2022/01/06 11:37:47;;;;;;;2.88;1.17;;;;;;;;;;5107511;27;20107;-75
2022/01/06 11:40:15;;;;;;;4.00;0.70;;;;;;;;;;5078795;27;20030;-74
2022/01/06 11:42:41;;;;;;;3.08;0.70;;;;;;;;;;5107252;27;20023;-74
2022/01/06 11:45:08;;;;;;;2.83;0.82;;;;;;;;;;5109996;27;20134;-73
2022/01/06 11:47:38;;;;;;;1.40;0.60;;;;;;;;;;5099379;27;20043;-74
2022/01/06 11:50:24;;;;;;;2.30;0.60;;;;;;;;;;5077865;28;20443;-72
2022/01/06 11:52:55;;;;;;;2.55;0.70;;;;;;;;;;5090349;28;20078;-73
2022/01/06 11:55:22;;;;;;;2.13;0.90;;;;;;;;;;5074767;28;20564;-73
2022/01/06 11:57:48;;;;;;;4.20;0.88;;;;;;;;;;5084864;28;20081;-74
2022/01/06 12:00:16;;;;;;;2.85;0.50;;;;;;;;;;5073253;28;20682;-73
2022/01/06 12:02:43;;;;;;;2.03;0.70;;;;;;;;;;5093355;28;20101;-73
2022/01/06 12:05:09;;;;;;;3.17;0.80;;;;;;;;;;5107683;28;20030;-73
2022/01/06 12:07:35;;;;;;;3.70;0.95;;;;;;;;;;5099968;27;20036;-72
2022/01/06 12:10:07;;;;;;;5.80;0.70;;;;;;;;;;5090842;28;20072;-72
2022/01/06 12:12:40;;;;;;;2.95;0.80;;;;;;;;;;5104043;28;20090;-73
2022/01/06 12:15:06;;;;;;;5.28;1.17;;;;;;;;;;5096641;28;20028;-74
2022/01/06 12:17:32;;;;;;;1.50;0.68;;;;;;;;;;5106584;27;20039;-74
2022/01/06 12:19:58;;;;;;;3.28;0.80;;;;;;;;;;5105213;28;20024;-74
2022/01/06 12:22:26;;;;;;;3.05;0.90;;;;;;;;;;5107643;27;20046;-76
2022/01/06 12:24:59;;;;;;;5.40;0.80;;;;;;;;;;5104216;28;20039;-76
2022/01/06 12:27:25;;;;;;;;;;;;;;;;;;5104981;27;20104;-75
2022/01/06 12:29:53;;;;;;;1.25;0.60;;;;;;;;;;5096635;27;19916;-75
2022/01/06 12:32:20;;;;;;;3.85;0.70;;;;;;;;;;5107802;28;20665;-75
2022/01/06 12:34:53;;;;;;;3.60;0.70;;;;;;;;;;5107277;28;20035;-74
2022/01/06 12:37:26;;;;;;;2.03;0.70;;;;;;;;;;5078511;28;20027;-74
2022/01/06 12:39:52;;;;;;;3.28;0.85;;;;;;;;;;5100246;28;20057;-74
2022/01/06 12:42:19;;;;;;;5.38;0.80;;;;;;;;;;5096065;28;20440;-74
2022/01/06 12:44:45;;;;;;;3.30;0.82;;;;;;;;;;5092987;28;20779;-74
2022/01/06 12:47:11;;;;;;;4.68;0.63;;;;;;;;;;5093164;28;20096;-74
2022/01/06 12:49:38;;;;;;;4.57;0.82;;;;;;;;;;5095788;28;20125;-71
2022/01/06 12:52:06;;;;;;;4.40;0.57;;;;;;;;;;5107898;28;20039;-70
2022/01/06 12:54:34;;;;;;;4.43;1.33;;;;;;;;;;5108096;28;20023;-70
2022/01/06 12:57:02;;;;;;;2.50;0.70;;;;;;;;;;5108506;28;20027;-69
2022/01/06 12:59:36;;;;;;;2.33;0.70;;;;;;;;;;5102353;28;20049;-69
2022/01/06 13:02:08;;;;;;;3.85;0.80;;;;;;;;;;5114888;28;20172;-70
2022/01/06 13:04:35;;;;;;;2.50;0.95;;;;;;;;;;5088737;28;20031;-74
2022/01/06 13:07:02;;;;;;;3.72;1.00;;;;;;;;;;5109965;28;20498;-74
2022/01/06 13:09:32;;;;;;;4.50;0.93;;;;;;;;;;5119677;28;20058;-71
2022/01/06 13:12:03;;;;;;;2.30;0.77;;;;;;;;;;5115286;28;20054;-73
2022/01/06 13:14:30;;;;;;;5.05;0.88;;;;;;;;;;5100984;28;20062;-72
2022/01/06 13:17:07;;;;;;;4.22;1.10;;;;;;;;;;5092140;28;20055;-71
2022/01/06 13:19:33;;;;;;;3.58;0.93;;;;;;;;;;5083296;28;20615;-74
2022/01/06 13:22:06;;;;;;;9.57;1.10;;;;;;;;;;5112685;27;20026;-74
2022/01/06 13:24:36;;;;;;;3.92;0.90;;;;;;;;;;5085290;27;20034;-72
2022/01/06 13:27:12;;;;;;;3.78;0.65;;;;;;;;;;5121947;27;20109;-73
2022/01/06 13:29:57;;;;;;;6.82;0.90;;;;;;;;;;5083041;28;20154;-71
2022/01/06 13:32:29;;;;;;;2.30;1.00;;;;;;;;;;5115759;27;20114;-73
2022/01/06 13:35:03;;;;;;;4.03;0.67;;;;;;;;;;5110669;27;20458;-73
2022/01/06 13:37:30;;;;;;;7.57;1.05;;;;;;;;;;5084500;28;20031;-70
2022/01/06 13:40:01;;;;;;;0.93;0.68;;;;;;;;;;5117788;27;20019;-70
2022/01/06 13:42:27;;;;;;;1.77;1.00;;;;;;;;;;5117621;27;20031;-70
2022/01/06 13:44:57;;;;;;;3.15;0.70;;;;;;;;;;5113633;27;20472;-70
2022/01/06 13:47:59;;;;;;;2.47;0.90;;;;;;;;;;5101435;27;20121;-70
2022/01/06 13:53:18;;;;;;;1.15;0.60;;;;;;;;;;5105540;27;20174;-71
2022/01/06 13:55:56;;;;;;;1.17;0.50;;;;;;;;;;5116842;27;20031;-71
2022/01/06 13:58:22;;;;;;;2.92;0.60;;;;;;;;;;5087030;27;20528;-72
2022/01/06 14:00:51;;;;;;;2.30;0.70;;;;;;;;;;5116050;27;20045;-71
2022/01/06 14:03:17;;;;;;;1.70;0.60;;;;;;;;;;5118816;27;20382;-71
2022/01/06 14:05:43;;;;;;;3.75;0.80;;;;;;;;;;5113726;27;20480;-70
2022/01/06 14:08:10;;;;;;;2.55;0.60;;;;;;;;;;5123822;27;20455;-70
2022/01/06 14:10:36;;;;;;;1.75;0.80;;;;;;;;;;5107941;27;20509;-70
2022/01/06 14:13:03;;;;;;;2.45;0.60;;;;;;;;;;5118061;27;20106;-71
2022/01/06 14:15:29;;;;;;;2.28;0.75;;;;;;;;;;5118209;27;20678;-71
2022/01/06 14:17:55;;;;;;;2.55;0.75;;;;;;;;;;5095222;28;20055;-72
2022/01/06 14:20:21;;;;;;;2.83;0.68;;;;;;;;;;5108556;27;20024;-71
2022/01/06 14:22:47;;;;;;;2.63;0.80;;;;;;;;;;5113434;27;20106;-73
2022/01/06 14:25:14;;;;;;;1.25;0.52;;;;;;;;;;5120718;27;20103;-72
2022/01/06 14:27:40;;;;;;;1.23;0.57;;;;;;;;;;5119471;27;20443;-71
2022/01/06 14:30:07;;;;;;;1.50;0.60;;;;;;;;;;5079765;27;20043;-71
2022/01/06 14:32:35;;;;;;;2.60;0.80;;;;;;;;;;5121534;27;20034;-71
2022/01/06 14:35:02;;;;;;;3.42;0.57;;;;;;;;;;5125513;27;20474;-70
2022/01/06 14:37:28;;;;;;;2.03;0.80;;;;;;;;;;5126654;27;20091;-69
2022/01/06 14:39:55;;;;;;;1.00;0.50;;;;;;;;;;5110874;27;20087;-69
2022/01/06 14:42:21;;;;;;;4.18;1.05;;;;;;;;;;5117292;27;20024;-72
2022/01/06 14:44:47;;;;;;;1.70;0.85;;;;;;;;;;5118205;27;20481;-70
2022/01/06 14:47:13;;;;;;;3.47;0.60;;;;;;;;;;5124587;27;20027;-72
2022/01/06 14:49:39;;;;;;;2.55;0.60;;;;;;;;;;5106836;27;20092;-71
2022/01/06 14:52:06;;;;;;;1.55;0.60;;;;;;;;;;5116462;27;20036;-71
2022/01/06 14:54:33;;;;;;;2.53;0.70;;;;;;;;;;5084820;28;20510;-70